createdAt,value
2018-06-19T00:00:39.289Z,9.50
2018-06-19T00:03:07.409Z,9.57
2018-06-19T00:05:35.610Z,9.20
2018-06-19T00:08:04.017Z,8.50
2018-06-19T00:10:32.505Z,8.67
2018-06-19T00:13:00.498Z,9.60
2018-06-19T00:15:28.509Z,8.67
2018-06-19T00:18:02.151Z,8.53
2018-06-19T00:20:30.193Z,8.77
2018-06-19T00:22:58.148Z,8.00
2018-06-19T00:25:26.217Z,8.80
2018-06-19T00:27:54.423Z,11.63
2018-06-19T00:30:22.500Z,8.97
2018-06-19T00:32:50.490Z,8.50
2018-06-19T00:35:18.441Z,8.97
2018-06-19T00:37:46.417Z,9.60
2018-06-19T00:40:14.365Z,7.77
2018-06-19T00:42:42.327Z,8.23
2018-06-19T00:45:10.364Z,8.20
2018-06-19T00:47:38.482Z,8.47
2018-06-19T00:50:06.604Z,7.90
2018-06-19T00:52:34.729Z,8.50
2018-06-19T00:55:03.068Z,7.90
2018-06-19T00:57:31.177Z,9.60
2018-06-19T00:59:59.179Z,8.40
2018-06-19T01:02:27.141Z,8.10
2018-06-19T01:04:55.080Z,7.97
2018-06-19T01:07:23.452Z,8.70
2018-06-19T01:09:51.873Z,8.07
2018-06-19T01:12:19.834Z,8.17
2018-06-19T01:14:47.772Z,8.10
2018-06-19T01:17:15.720Z,7.93
2018-06-19T01:19:43.734Z,7.90
2018-06-19T01:22:11.708Z,9.27
2018-06-19T01:24:39.688Z,8.33
2018-06-19T01:27:07.824Z,8.50
2018-06-19T01:29:35.992Z,7.83
2018-06-19T01:32:04.177Z,8.20
2018-06-19T01:34:33.040Z,8.30
2018-06-19T01:37:01.392Z,9.07
2018-06-19T01:39:29.365Z,7.90
2018-06-19T01:41:57.512Z,8.70
2018-06-19T01:44:25.460Z,7.50
2018-06-19T01:46:53.441Z,7.33
2018-06-19T01:49:21.483Z,7.00
2018-06-19T01:51:49.425Z,8.50
2018-06-19T01:54:17.471Z,8.67
2018-06-19T01:56:45.438Z,8.00
2018-06-19T01:59:13.368Z,7.40
2018-06-19T02:01:41.385Z,7.67
2018-06-19T02:04:09.496Z,7.70
2018-06-19T02:06:37.601Z,8.30
2018-06-19T02:09:06.966Z,9.17
2018-06-19T02:11:35.120Z,7.93
2018-06-19T02:14:03.232Z,6.50
2018-06-19T02:16:31.343Z,8.30
2018-06-19T02:18:59.335Z,7.77
2018-06-19T02:21:27.290Z,13.07
2018-06-19T02:23:55.347Z,10.60
2018-06-19T02:26:23.405Z,7.90
2018-06-19T02:28:51.502Z,8.60
2018-06-19T02:31:19.455Z,7.80
2018-06-19T02:33:47.960Z,7.90
2018-06-19T02:36:15.869Z,7.37
2018-06-19T02:38:43.837Z,8.43
2018-06-19T02:41:11.809Z,7.90
2018-06-19T02:43:39.794Z,7.33
2018-06-19T02:46:08.122Z,7.23
2018-06-19T02:48:36.220Z,7.00
2018-06-19T02:51:04.322Z,7.60
2018-06-19T02:53:32.491Z,7.00
2018-06-19T02:56:00.450Z,7.40
2018-06-19T02:58:28.389Z,6.70
2018-06-19T03:00:56.309Z,6.77
2018-06-19T03:03:24.285Z,10.50
2018-06-19T03:05:52.282Z,8.50
2018-06-19T03:08:20.217Z,7.33
2018-06-19T03:10:48.170Z,8.17
2018-06-19T03:13:16.117Z,8.23
2018-06-19T03:15:44.043Z,8.10
2018-06-19T03:18:11.994Z,13.87
2018-06-19T03:20:40.041Z,23.03
2018-06-19T03:23:08.113Z,8.90
2018-06-19T03:25:36.206Z,8.17
2018-06-19T03:28:04.945Z,8.13
2018-06-19T03:30:32.989Z,8.30
2018-06-19T03:33:00.990Z,8.87
2018-06-19T03:35:28.969Z,7.30
2018-06-19T03:37:57.897Z,7.50
2018-06-19T03:40:25.857Z,8.40
2018-06-19T03:42:53.925Z,9.27
2018-06-19T03:45:22.000Z,7.93
2018-06-19T03:47:49.954Z,7.80
2018-06-19T03:50:17.908Z,7.37
2018-06-19T03:52:45.863Z,10.00
2018-06-19T03:55:13.785Z,16.13
2018-06-19T03:57:41.742Z,7.97
2018-06-19T04:00:09.677Z,7.97
2018-06-19T04:02:37.814Z,7.57
2018-06-19T04:05:07.631Z,6.63
2018-06-19T04:07:35.857Z,6.80
2018-06-19T04:10:04.392Z,7.37
2018-06-19T04:12:33.487Z,6.57
2018-06-19T04:15:01.721Z,7.33
2018-06-19T04:17:30.113Z,10.13
2018-06-19T04:19:58.766Z,6.50
2018-06-19T04:22:28.169Z,6.90
2018-06-19T04:24:56.381Z,7.10
2018-06-19T04:27:24.376Z,7.13
2018-06-19T04:29:52.405Z,6.17
2018-06-19T04:32:20.370Z,6.60
2018-06-19T04:34:48.340Z,6.97
2018-06-19T04:37:16.301Z,7.23
2018-06-19T04:39:44.748Z,6.80
2018-06-19T04:42:12.737Z,6.53
2018-06-19T04:44:40.734Z,5.80
2018-06-19T04:47:09.181Z,6.20
2018-06-19T04:49:37.395Z,5.37
2018-06-19T04:52:05.548Z,5.80
2018-06-19T04:54:33.773Z,5.93
2018-06-19T04:57:01.896Z,5.60
2018-06-19T04:59:29.864Z,5.60
2018-06-19T05:01:58.067Z,7.40
2018-06-19T05:04:26.096Z,4.83
2018-06-19T05:06:54.270Z,4.80
2018-06-19T05:09:22.194Z,5.93
2018-06-19T05:11:50.158Z,6.87
2018-06-19T05:14:18.084Z,5.77
2018-06-19T05:16:46.081Z,5.87
2018-06-19T05:19:14.057Z,6.23
2018-06-19T05:21:41.995Z,6.30
2018-06-19T05:24:10.061Z,5.47
2018-06-19T05:26:38.125Z,6.50
2018-06-19T05:29:06.342Z,6.40
2018-06-19T05:31:34.727Z,5.40
2018-06-19T05:34:04.126Z,5.47
2018-06-19T05:36:32.368Z,5.80
2018-06-19T05:39:00.468Z,5.70
2018-06-19T05:41:28.381Z,5.63
2018-06-19T05:43:56.412Z,6.20
2018-06-19T05:46:24.595Z,5.70
2018-06-19T05:48:52.553Z,6.10
2018-06-19T05:51:20.492Z,6.03
2018-06-19T05:53:48.467Z,5.17
2018-06-19T05:56:16.950Z,6.23
2018-06-19T05:58:44.934Z,5.80
2018-06-19T06:01:12.853Z,6.53
2018-06-19T06:03:40.837Z,5.70
2018-06-19T06:06:09.012Z,6.50
2018-06-19T06:08:37.139Z,6.27
2018-06-19T06:11:05.636Z,5.13
2018-06-19T06:13:34.561Z,5.53
2018-06-19T06:16:03.630Z,4.80
2018-06-19T06:18:31.669Z,5.47
2018-06-19T06:20:59.799Z,4.70
2018-06-19T06:23:27.759Z,4.20
2018-06-19T06:25:56.041Z,4.63
2018-06-19T06:28:24.310Z,4.30
2018-06-19T06:30:52.529Z,4.60
2018-06-19T06:33:20.577Z,4.70
2018-06-19T06:35:48.559Z,4.57
2018-06-19T06:38:16.592Z,4.53
2018-06-19T06:40:44.744Z,4.80
2018-06-19T06:43:13.138Z,3.53
2018-06-19T06:45:41.097Z,4.10
2018-06-19T06:48:09.459Z,3.83
2018-06-19T06:50:37.866Z,4.60
2018-06-19T06:53:06.239Z,5.00
2018-06-19T06:55:34.676Z,3.93
2018-06-19T06:58:02.966Z,3.23
2018-06-19T07:00:31.779Z,3.40
2018-06-19T07:02:59.753Z,3.90
2018-06-19T07:05:27.687Z,3.40
2018-06-19T07:07:56.078Z,4.13
2018-06-19T07:10:24.243Z,3.30
2018-06-19T07:12:52.405Z,4.40
2018-06-19T07:15:21.256Z,4.30
2018-06-19T07:17:49.280Z,3.40
2018-06-19T07:20:17.247Z,3.20
2018-06-19T07:22:45.209Z,3.10
2018-06-19T07:25:13.215Z,3.23
2018-06-19T07:27:41.204Z,4.07
2018-06-19T07:30:09.615Z,3.73
2018-06-19T07:32:37.933Z,2.77
2018-06-19T07:35:06.165Z,3.57
2018-06-19T07:37:34.504Z,3.47
2018-06-19T07:40:02.797Z,3.10
2018-06-19T07:42:30.835Z,3.40
2018-06-19T07:44:58.985Z,2.87
2018-06-19T07:47:27.126Z,2.97
2018-06-19T07:49:55.569Z,3.07
2018-06-19T07:52:23.849Z,2.30
2018-06-19T07:54:51.892Z,2.83
2018-06-19T07:57:19.914Z,3.10
2018-06-19T07:59:47.862Z,2.33
2018-06-19T08:02:16.115Z,3.70
2018-06-19T08:04:44.238Z,3.47
2018-06-19T08:07:12.161Z,2.83
2018-06-19T08:09:40.861Z,2.53
2018-06-19T08:12:08.921Z,2.63
2018-06-19T08:14:37.262Z,2.07
2018-06-19T08:17:05.950Z,2.80
2018-06-19T08:19:34.246Z,2.53
2018-06-19T08:22:02.664Z,2.40
2018-06-19T08:24:31.949Z,3.27
2018-06-19T08:27:00.768Z,3.00
2018-06-19T08:29:29.260Z,2.63
2018-06-19T08:31:57.292Z,3.17
2018-06-19T08:34:25.699Z,3.40
2018-06-19T08:36:53.978Z,1.80
2018-06-19T08:39:22.632Z,3.10
2018-06-19T08:41:50.596Z,4.80
2018-06-19T08:44:18.557Z,3.10
2018-06-19T08:46:46.560Z,2.13
2018-06-19T08:49:14.552Z,12.43
2018-06-19T08:51:42.508Z,2.53
2018-06-19T08:54:10.660Z,8.07
2018-06-19T08:56:39.472Z,3.63
2018-06-19T08:59:07.668Z,2.63
2018-06-19T09:01:36.279Z,4.17
2018-06-19T09:04:04.926Z,2.50
2018-06-19T09:06:34.267Z,3.63
2018-06-19T09:09:03.194Z,2.77
2018-06-19T09:11:31.520Z,2.97
2018-06-19T09:13:59.813Z,2.63
2018-06-19T09:16:28.097Z,3.10
2018-06-19T09:18:56.316Z,2.30
2018-06-19T09:21:25.258Z,2.63
2018-06-19T09:23:53.607Z,2.57
2018-06-19T09:26:21.677Z,2.90
2018-06-19T09:28:49.745Z,2.87
2018-06-19T09:31:17.899Z,2.67
2018-06-19T09:33:45.904Z,2.47
2018-06-19T09:36:14.054Z,2.80
2018-06-19T09:38:42.065Z,2.60
2018-06-19T09:41:10.498Z,2.50
2018-06-19T09:43:39.276Z,1.70
2018-06-19T09:46:07.487Z,2.37
2018-06-19T09:48:36.382Z,2.27
2018-06-19T09:51:04.809Z,2.40
2018-06-19T09:53:33.758Z,1.83
2018-06-19T09:56:02.208Z,3.37
2018-06-19T09:58:30.380Z,2.47
2018-06-19T10:01:00.478Z,2.43
2018-06-19T10:03:28.935Z,2.00
2018-06-19T10:05:56.934Z,2.10
2018-06-19T10:08:25.142Z,2.50
2018-06-19T10:10:53.769Z,2.30
2018-06-19T10:13:21.868Z,2.27
2018-06-19T10:15:50.145Z,2.00
2018-06-19T10:18:18.104Z,2.93
2018-06-19T10:20:46.250Z,2.40
2018-06-19T10:23:14.726Z,2.47
2018-06-19T10:25:42.854Z,2.37
2018-06-19T10:28:10.971Z,2.27
2018-06-19T10:30:39.361Z,2.20
2018-06-19T10:33:07.930Z,2.57
2018-06-19T10:35:36.168Z,2.50
2018-06-19T10:38:04.904Z,2.57
2018-06-19T10:40:33.529Z,2.57
2018-06-19T10:43:01.673Z,3.27
2018-06-19T10:45:29.808Z,2.47
2018-06-19T10:47:57.777Z,2.50
2018-06-19T10:50:25.979Z,2.03
2018-06-19T10:52:54.140Z,2.30
2018-06-19T10:55:22.637Z,2.77
2018-06-19T10:57:50.694Z,2.40
2018-06-19T11:00:18.737Z,2.57
2018-06-19T11:02:46.991Z,2.80
2018-06-19T11:05:15.166Z,2.57
2018-06-19T11:07:43.276Z,3.73
2018-06-19T11:10:11.490Z,2.07
2018-06-19T11:12:39.726Z,2.90
2018-06-19T11:15:07.932Z,5.13
2018-06-19T11:17:36.851Z,2.97
2018-06-19T11:20:05.584Z,4.70
2018-06-19T11:22:33.969Z,3.33
2018-06-19T11:25:02.355Z,2.73
2018-06-19T11:27:30.457Z,4.37
2018-06-19T11:29:58.850Z,2.70
2018-06-19T11:32:27.054Z,4.13
2018-06-19T11:34:55.240Z,3.00
2018-06-19T11:37:23.552Z,2.20
2018-06-19T11:39:51.653Z,3.20
2018-06-19T11:42:19.667Z,4.60
2018-06-19T11:44:48.403Z,2.90
2018-06-19T11:47:16.405Z,4.67
2018-06-19T11:49:44.845Z,2.70
2018-06-19T11:52:12.972Z,3.40
2018-06-19T11:54:41.526Z,2.90
2018-06-19T11:57:10.107Z,5.50
2018-06-19T11:59:38.213Z,4.43
2018-06-19T12:02:06.993Z,3.20
2018-06-19T12:04:35.836Z,3.20
2018-06-19T12:07:04.518Z,2.70
2018-06-19T12:09:33.153Z,2.47
2018-06-19T12:12:02.101Z,2.33
2018-06-19T12:14:30.306Z,3.20
2018-06-19T12:16:58.311Z,3.47
2018-06-19T12:19:26.589Z,4.10
2018-06-19T12:21:55.088Z,2.93
2018-06-19T12:24:23.310Z,2.40
2018-06-19T12:26:51.500Z,2.20
2018-06-19T12:29:19.754Z,3.13
2018-06-19T12:31:47.923Z,2.53
2018-06-19T12:34:15.913Z,2.70
2018-06-19T12:36:43.985Z,3.00
2018-06-19T12:39:12.684Z,2.60
2018-06-19T12:41:42.795Z,2.30
2018-06-19T12:44:11.065Z,4.90
2018-06-19T12:46:40.001Z,3.57
2018-06-19T12:49:08.655Z,2.37
2018-06-19T12:51:42.981Z,2.20
2018-06-19T12:54:16.530Z,3.53
2018-06-19T12:56:44.852Z,2.60
2018-06-19T12:59:13.236Z,2.83
2018-06-19T13:01:41.365Z,2.00
2018-06-19T13:04:14.824Z,2.80
2018-06-19T13:06:42.834Z,2.60
2018-06-19T13:09:10.855Z,6.83
2018-06-19T13:11:39.327Z,3.40
2018-06-19T13:14:12.828Z,2.40
2018-06-19T13:16:46.701Z,2.77
2018-06-19T13:19:24.033Z,2.93
2018-06-19T13:21:52.098Z,2.43
2018-06-19T13:24:20.232Z,2.63
2018-06-19T13:26:48.405Z,3.67
2018-06-19T13:29:30.721Z,2.10
2018-06-19T13:31:58.937Z,3.30
2018-06-19T13:34:27.014Z,2.77
2018-06-19T13:36:55.689Z,3.03
2018-06-19T13:39:23.933Z,2.53
2018-06-19T13:41:57.579Z,3.03
2018-06-19T13:44:59.954Z,2.03
2018-06-19T13:47:28.006Z,2.23
2018-06-19T13:49:56.142Z,2.30
2018-06-19T13:52:24.506Z,2.50
2018-06-19T13:54:53.053Z,2.83
2018-06-19T13:57:33.827Z,3.83
2018-06-19T14:00:05.324Z,3.27
2018-06-19T14:02:34.271Z,1.70
2018-06-19T14:05:03.242Z,2.13
2018-06-19T14:07:33.658Z,2.10
2018-06-19T14:10:09.524Z,2.13
2018-06-19T14:13:01.933Z,2.43
2018-06-19T14:15:30.854Z,2.00
2018-06-19T14:17:59.380Z,2.10
2018-06-19T14:20:27.489Z,3.20
2018-06-19T14:22:55.740Z,2.10
2018-06-19T14:25:24.628Z,1.90
2018-06-19T14:27:52.752Z,1.90
2018-06-19T14:30:21.158Z,1.70
2018-06-19T14:32:49.497Z,2.23
2018-06-19T14:35:17.858Z,3.47
2018-06-19T14:37:46.475Z,2.40
2018-06-19T14:40:17.506Z,2.37
2018-06-19T14:42:45.595Z,3.17
2018-06-19T14:45:13.812Z,2.27
2018-06-19T14:47:42.435Z,2.77
2018-06-19T14:50:10.708Z,2.20
2018-06-19T14:52:38.886Z,3.50
2018-06-19T14:55:08.621Z,2.20
2018-06-19T14:57:37.480Z,2.73
2018-06-19T15:00:06.138Z,2.67
2018-06-19T15:02:34.668Z,3.20
2018-06-19T15:05:03.874Z,3.13
2018-06-19T15:08:08.678Z,2.70
2018-06-19T15:10:37.344Z,3.70
2018-06-19T15:13:06.005Z,2.47
2018-06-19T15:15:34.856Z,3.30
2018-06-19T15:18:03.657Z,2.90
2018-06-19T15:20:31.978Z,2.10
2018-06-19T15:23:00.376Z,2.40
2018-06-19T15:25:28.749Z,2.37
2018-06-19T15:27:57.950Z,3.00
2018-06-19T15:30:26.468Z,2.40
2018-06-19T15:32:55.239Z,3.90
2018-06-19T15:35:23.787Z,2.80
2018-06-19T15:37:51.907Z,2.50
2018-06-19T15:40:20.252Z,2.57
2018-06-19T15:42:48.498Z,2.00
2018-06-19T15:45:16.542Z,3.70
2018-06-19T15:47:44.578Z,2.57
2018-06-19T15:50:12.690Z,2.33
2018-06-19T15:52:40.790Z,3.03
2018-06-19T15:55:15.492Z,2.23
2018-06-19T15:57:43.563Z,2.00
2018-06-19T16:00:11.518Z,2.33
2018-06-19T16:02:42.323Z,1.93
2018-06-19T16:05:11.043Z,2.70
2018-06-19T16:07:49.785Z,1.90
2018-06-19T16:10:17.953Z,2.33
2018-06-19T16:12:46.083Z,2.50
2018-06-19T16:15:14.706Z,2.80
2018-06-19T16:17:42.945Z,2.60
2018-06-19T16:20:11.428Z,1.97
2018-06-19T16:22:40.057Z,2.53
2018-06-19T16:25:08.374Z,2.13
2018-06-19T16:27:37.218Z,2.93
2018-06-19T16:30:05.818Z,2.70
2018-06-19T16:32:34.532Z,2.90
2018-06-19T16:35:03.743Z,3.07
2018-06-19T16:37:32.804Z,2.57
2018-06-19T16:40:03.659Z,2.70
2018-06-19T16:42:31.863Z,2.27
2018-06-19T16:45:00.752Z,2.50
2018-06-19T16:47:29.884Z,2.13
2018-06-19T16:49:58.405Z,2.90
2018-06-19T16:52:26.826Z,2.60
2018-06-19T16:54:55.197Z,2.47
2018-06-19T16:57:23.223Z,1.97
2018-06-19T16:59:51.326Z,2.30
2018-06-19T17:02:19.672Z,2.80
2018-06-19T17:04:47.948Z,2.67
2018-06-19T17:07:16.157Z,2.93
2018-06-19T17:09:44.621Z,2.13
2018-06-19T17:12:13.017Z,2.10
2018-06-19T17:14:41.494Z,1.90
2018-06-19T17:17:09.973Z,39.80
2018-06-19T17:19:38.351Z,17.07
2018-06-19T17:22:06.992Z,4.27
2018-06-19T17:24:35.624Z,2.40
2018-06-19T17:27:04.359Z,2.27
2018-06-19T17:29:34.221Z,2.40
2018-06-19T17:32:02.425Z,1.83
2018-06-19T17:34:30.772Z,2.13
2018-06-19T17:36:58.969Z,1.60
2018-06-19T17:39:27.052Z,3.70
2018-06-19T17:41:55.325Z,2.10
2018-06-19T17:44:23.497Z,2.67
2018-06-19T17:46:51.541Z,2.77
2018-06-19T17:49:19.461Z,2.90
2018-06-19T17:51:48.117Z,1.70
2018-06-19T17:54:16.129Z,2.40
2018-06-19T17:56:44.249Z,3.30
2018-06-19T17:59:12.588Z,2.00
2018-06-19T18:01:41.072Z,2.30
2018-06-19T18:04:09.294Z,2.80
2018-06-19T18:06:38.375Z,2.30
2018-06-19T18:09:07.552Z,1.70
2018-06-19T18:11:35.807Z,2.40
2018-06-19T18:14:04.144Z,3.67
2018-06-19T18:16:32.894Z,2.10
2018-06-19T18:19:01.251Z,2.30
2018-06-19T18:21:29.612Z,2.10
2018-06-19T18:23:57.739Z,2.73
2018-06-19T18:26:26.002Z,2.77
2018-06-19T18:28:53.953Z,2.70
2018-06-19T18:31:21.886Z,2.23
2018-06-19T18:33:49.856Z,2.23
2018-06-19T18:36:17.826Z,2.47
2018-06-19T18:38:45.877Z,2.73
2018-06-19T18:41:13.842Z,2.53
2018-06-19T18:43:41.912Z,2.20
2018-06-19T18:46:09.867Z,2.60
2018-06-19T18:48:38.157Z,3.57
2018-06-19T18:51:06.278Z,2.50
2018-06-19T18:53:36.103Z,1.90
2018-06-19T18:56:04.533Z,2.60
2018-06-19T18:58:33.186Z,3.30
2018-06-19T19:01:01.189Z,2.80
2018-06-19T19:03:29.498Z,2.60
2018-06-19T19:05:57.717Z,3.33
2018-06-19T19:08:26.461Z,2.70
2018-06-19T19:10:55.671Z,2.80
2018-06-19T19:13:24.877Z,2.80
2018-06-19T19:15:58.269Z,2.40
2018-06-19T19:18:32.056Z,3.20
2018-06-19T19:21:01.144Z,2.93
2018-06-19T19:23:29.729Z,2.67
2018-06-19T19:25:58.273Z,3.30
2018-06-19T19:28:31.604Z,3.07
2018-06-19T19:30:59.778Z,2.90
2018-06-19T19:33:27.870Z,2.60
2018-06-19T19:35:56.702Z,2.93
2018-06-19T19:39:30.354Z,3.10
2018-06-19T19:41:58.342Z,2.47
2018-06-19T19:44:26.369Z,3.47
2018-06-19T19:46:59.685Z,3.40
2018-06-19T19:49:27.758Z,3.50
2018-06-19T19:51:55.864Z,2.77
2018-06-19T19:54:23.852Z,4.23
2018-06-19T19:56:57.152Z,3.83
2018-06-19T19:59:25.143Z,3.20
2018-06-19T20:01:53.151Z,3.17
2018-06-19T20:04:21.125Z,4.43
2018-06-19T20:06:50.070Z,3.80
2018-06-19T20:09:18.421Z,3.90
2018-06-19T20:11:46.503Z,4.70
2018-06-19T20:14:14.569Z,4.73
2018-06-19T20:16:42.838Z,3.80
2018-06-19T20:19:11.032Z,5.10
2018-06-19T20:21:39.358Z,5.30
2018-06-19T20:24:07.586Z,5.27
2018-06-19T20:26:35.908Z,5.50
2018-06-19T20:29:08.393Z,4.70
2018-06-19T20:31:37.707Z,4.70
2018-06-19T20:34:06.287Z,4.30
2018-06-19T20:36:34.778Z,4.37
2018-06-19T20:39:03.234Z,4.00
2018-06-19T20:41:31.505Z,5.03
2018-06-19T20:43:59.455Z,4.50
2018-06-19T20:46:27.974Z,4.97
2018-06-19T20:48:56.081Z,5.43
2018-06-19T20:51:24.272Z,5.30
2018-06-19T20:53:52.260Z,4.87
2018-06-19T20:56:20.181Z,4.70
2018-06-19T20:58:48.269Z,4.70
2018-06-19T21:01:16.253Z,4.30
2018-06-19T21:03:44.168Z,4.30
2018-06-19T21:06:12.174Z,4.80
2018-06-19T21:08:41.229Z,4.33
2018-06-19T21:11:10.942Z,4.00
2018-06-19T21:13:39.061Z,3.93
2018-06-19T21:16:07.676Z,5.33
2018-06-19T21:18:36.208Z,4.20
2018-06-19T21:21:04.473Z,4.50
2018-06-19T21:23:32.746Z,3.30
2018-06-19T21:26:00.724Z,3.40
2018-06-19T21:28:28.695Z,3.37
2018-06-19T21:30:56.792Z,3.97
2018-06-19T21:33:24.961Z,3.83
2018-06-19T21:35:52.975Z,4.00
2018-06-19T21:38:20.925Z,4.13
2018-06-19T21:40:48.998Z,5.20
2018-06-19T21:43:16.939Z,3.80
2018-06-19T21:45:44.908Z,4.67
2018-06-19T21:48:12.990Z,4.10
2018-06-19T21:50:41.537Z,4.97
2018-06-19T21:53:09.814Z,4.57
2018-06-19T21:55:37.996Z,4.80
2018-06-19T21:58:06.273Z,5.70
2018-06-19T22:00:35.435Z,4.63
2018-06-19T22:03:04.002Z,5.20
2018-06-19T22:05:32.080Z,4.57
2018-06-19T22:08:00.393Z,4.50
2018-06-19T22:10:28.346Z,5.33
2018-06-19T22:12:56.470Z,5.33
2018-06-19T22:15:24.696Z,4.13
2018-06-19T22:17:52.758Z,5.63
2018-06-19T22:20:20.690Z,4.90
2018-06-19T22:22:48.683Z,4.60
2018-06-19T22:25:16.685Z,4.40
2018-06-19T22:27:44.648Z,4.70
2018-06-19T22:30:12.588Z,5.13
2018-06-19T22:32:40.616Z,6.07
2018-06-19T22:35:08.713Z,5.63
2018-06-19T22:37:36.874Z,4.70
2018-06-19T22:40:04.986Z,4.77
2018-06-19T22:42:33.296Z,6.00
2018-06-19T22:45:02.291Z,5.37
2018-06-19T22:47:30.925Z,5.20
2018-06-19T22:49:58.843Z,5.57
2018-06-19T22:52:26.866Z,5.43
2018-06-19T22:54:54.916Z,5.93
2018-06-19T22:57:23.000Z,4.93
2018-06-19T22:59:50.918Z,4.70
2018-06-19T23:02:19.185Z,4.83
2018-06-19T23:04:47.142Z,5.10
2018-06-19T23:07:15.076Z,5.30
2018-06-19T23:09:43.017Z,5.70
2018-06-19T23:12:11.082Z,5.53
2018-06-19T23:14:39.288Z,5.13
2018-06-19T23:17:07.453Z,6.23
2018-06-19T23:19:35.669Z,5.10
2018-06-19T23:22:03.841Z,5.50
2018-06-19T23:24:32.096Z,4.87
2018-06-19T23:27:00.027Z,4.50
2018-06-19T23:29:27.990Z,4.97
2018-06-19T23:31:56.017Z,5.13
2018-06-19T23:34:24.205Z,5.33
2018-06-19T23:36:52.278Z,5.07
2018-06-19T23:39:20.217Z,5.30
2018-06-19T23:41:48.171Z,5.10
2018-06-19T23:44:16.441Z,4.60
2018-06-19T23:46:44.372Z,5.57
2018-06-19T23:49:12.304Z,6.10
2018-06-19T23:51:40.264Z,5.07
2018-06-19T23:54:08.393Z,6.13
2018-06-19T23:56:36.566Z,5.37
2018-06-19T23:59:04.859Z,5.93
